Time;durP1;ratioP1;P1;durP2;ratioP2;P2;SDS_P1;SDS_P2;PMS_P1;PMS_P2;Temp;Humidity;BMP_temperature;BMP_pressure;BME280_temperature;BME280_humidity;BME280_pressure;Samples;Min_cycle;Max_cycle;Signal;HPM_P1;HPM_P2
2022/07/26 00:00:43;;;;;;;11.25;8.93;;;;;;;24.02;83.45;97382.09;5012753;28;20029;-74
2022/07/26 00:03:09;;;;;;;11.15;9.25;;;;;;;24.03;83.09;97397.66;5012620;28;20030;-75
2022/07/26 00:05:36;;;;;;;11.80;9.38;;;;;;;23.91;83.57;97384.84;5012592;28;20033;-74
2022/07/26 00:08:10;;;;;;;10.93;9.20;;;;;;;23.90;83.89;97396.44;4994945;28;20030;-74
2022/07/26 00:10:38;;;;;;;11.07;8.82;;;;;;;24.03;82.85;97400.44;5012394;28;20109;-74
2022/07/26 00:13:04;;;;;;;11.88;9.15;;;;;;;24.02;81.94;97382.09;5012464;28;20037;-76
2022/07/26 00:15:29;;;;;;;11.50;9.07;;;;;;;24.09;81.24;97390.47;5012451;28;20029;-74
2022/07/26 00:17:55;;;;;;;13.30;8.57;;;;;;;24.14;81.21;97394.91;5012253;28;20080;-74
2022/07/26 00:20:20;;;;;;;9.85;8.82;;;;;;;24.27;80.55;97396.13;5012234;28;20036;-75
2022/07/26 00:22:45;;;;;;;11.88;9.82;;;;;;;24.24;81.03;97396.91;5012331;28;20018;-73
2022/07/26 00:25:11;;;;;;;10.90;8.38;;;;;;;24.21;80.96;97394.91;5011779;28;20033;-74
2022/07/26 00:27:36;;;;;;;12.30;9.95;;;;;;;24.16;80.97;97392.50;4994281;28;20034;-75
2022/07/26 00:30:07;;;;;;;13.63;9.65;;;;;;;23.97;82.68;97377.69;5011930;28;20033;-74
2022/07/26 00:32:32;;;;;;;14.82;9.68;;;;;;;23.98;82.75;97398.84;5009195;28;20084;-75
2022/07/26 00:34:58;;;;;;;13.57;8.93;;;;;;;23.97;82.67;97385.25;4978291;28;20034;-74
2022/07/26 00:37:23;;;;;;;14.95;9.27;;;;;;;23.81;83.32;97374.47;4994183;28;20054;-74
2022/07/26 00:39:49;;;;;;;12.80;9.45;;;;;;;23.73;84.44;97363.69;5011880;28;20021;-75
2022/07/26 00:42:15;;;;;;;11.52;8.75;;;;;;;23.72;84.05;97362.06;5011694;28;20113;-74
2022/07/26 00:44:43;;;;;;;11.63;9.88;;;;;;;23.72;83.51;97346.09;5011961;28;20026;-75
2022/07/26 00:47:08;;;;;;;9.65;8.65;;;;;;;23.72;82.95;97346.09;5011832;28;20034;-75
2022/07/26 00:49:33;;;;;;;13.55;9.20;;;;;;;23.85;81.94;97338.16;5011640;28;20033;-75
2022/07/26 00:51:59;;;;;;;11.43;9.70;;;;;;;23.80;81.13;97325.38;5011584;28;20034;-75
2022/07/26 00:54:24;;;;;;;10.80;9.30;;;;;;;23.85;81.55;97324.19;5011421;28;20026;-75
2022/07/26 00:56:52;;;;;;;11.27;8.77;;;;;;;23.96;81.65;97327.78;5011342;28;20030;-75
2022/07/26 00:59:17;;;;;;;11.15;9.20;;;;;;;23.86;80.84;97323.78;5011621;28;20109;-74
2022/07/26 01:01:42;;;;;;;11.88;9.75;;;;;;;23.80;80.04;97302.22;5011421;28;20109;-73
2022/07/26 01:04:08;;;;;;;10.98;9.82;;;;;;;23.84;80.71;97303.81;5011796;28;20120;-74
2022/07/26 01:06:33;;;;;;;11.30;9.15;;;;;;;23.86;79.96;97311.81;5011540;28;20076;-75
2022/07/26 01:08:59;;;;;;;11.35;9.43;;;;;;;23.86;81.20;97295.84;5011141;28;20084;-74
2022/07/26 01:11:24;;;;;;;11.52;10.00;;;;;;;23.67;83.78;97303.81;5011094;28;20116;-73
2022/07/26 01:13:50;;;;;;;12.38;9.30;;;;;;;23.69;84.29;97304.19;5011241;28;20091;-74
2022/07/26 01:16:16;;;;;;;16.10;9.90;;;;;;;23.65;85.19;97311.81;5011215;28;20033;-75
2022/07/26 01:18:42;;;;;;;13.70;9.82;;;;;;;23.53;86.00;97314.94;5011139;28;20475;-74
2022/07/26 01:21:09;;;;;;;13.88;9.27;;;;;;;23.49;86.81;97316.94;5011164;28;20029;-75
2022/07/26 01:23:35;;;;;;;13.10;10.07;;;;;;;23.48;86.94;97315.34;4993527;28;20033;-75
2022/07/26 01:26:01;;;;;;;11.68;9.48;;;;;;;23.34;87.42;97311.28;5011043;28;20032;-73
2022/07/26 01:28:26;;;;;;;13.00;10.02;;;;;;;23.33;87.86;97309.72;5011208;28;20052;-74
2022/07/26 01:30:51;;;;;;;15.18;10.35;;;;;;;23.07;89.26;97318.38;5010822;28;20133;-73
2022/07/26 01:33:17;;;;;;;15.18;10.15;;;;;;;23.16;88.17;97327.19;5010976;28;20030;-76
2022/07/26 01:35:42;;;;;;;15.18;9.90;;;;;;;23.11;88.83;97316.41;5010440;28;20042;-75
2022/07/26 01:38:08;;;;;;;11.68;9.80;;;;;;;23.11;88.64;97319.19;5010774;28;20029;-74
2022/07/26 01:40:33;;;;;;;10.52;9.32;;;;;;;23.05;89.03;97317.19;5010662;28;20026;-74
2022/07/26 01:42:59;;;;;;;16.85;10.18;;;;;;;23.03;88.74;97311.16;5010635;28;20038;-74
2022/07/26 01:45:24;;;;;;;12.38;9.90;;;;;;;23.13;88.94;97313.22;4993205;28;20490;-74
2022/07/26 01:47:49;;;;;;;17.63;11.13;;;;;;;23.17;88.07;97300.88;5010821;28;20038;-75
2022/07/26 01:50:16;;;;;;;12.98;9.65;;;;;;;23.17;88.51;97292.50;4993100;28;20500;-76
2022/07/26 01:52:42;;;;;;;11.15;9.60;;;;;;;23.14;88.30;97275.75;5010891;28;20386;-74
2022/07/26 01:55:08;;;;;;;11.35;9.73;;;;;;;23.15;88.37;97283.72;5010641;28;20026;-74
2022/07/26 01:57:34;;;;;;;13.68;10.40;;;;;;;23.17;88.26;97286.13;4993250;28;20029;-74
2022/07/26 01:59:59;;;;;;;18.30;10.45;;;;;;;23.03;89.34;97275.69;4993245;28;20030;-74
2022/07/26 02:02:26;;;;;;;12.50;10.15;;;;;;;23.03;89.62;97286.88;5014753;28;20818;-74
2022/07/26 02:04:57;;;;;;;13.65;9.43;;;;;;;22.90;88.90;97288.41;5015015;28;20478;-75
2022/07/26 02:07:22;;;;;;;14.27;9.68;;;;;;;22.85;89.87;97297.16;5014617;28;20086;-74
2022/07/26 02:09:48;;;;;;;12.43;9.00;;;;;;;22.89;90.31;97284.03;5010800;28;20479;-75
2022/07/26 02:12:13;;;;;;;11.43;9.48;;;;;;;22.87;90.98;97278.03;4995273;28;20038;-75
2022/07/26 02:14:38;;;;;;;12.73;9.98;;;;;;;22.96;90.34;97286.06;4995744;28;20029;-74
2022/07/26 02:17:04;;;;;;;11.95;9.45;;;;;;;23.03;89.18;97295.22;5010480;28;20068;-74
2022/07/26 02:19:30;;;;;;;12.43;10.50;;;;;;;22.92;88.45;97297.19;5010347;28;20029;-74
2022/07/26 02:21:57;;;;;;;12.40;9.63;;;;;;;22.90;87.59;97285.59;5010568;28;20026;-74
2022/07/26 02:24:23;;;;;;;11.73;9.68;;;;;;;22.89;86.93;97284.03;5010426;28;20061;-74
2022/07/26 02:26:48;;;;;;;13.02;9.88;;;;;;;22.88;86.62;97276.84;5010515;28;20026;-73
2022/07/26 02:29:14;;;;;;;12.60;9.13;;;;;;;22.89;86.43;97286.81;5010619;28;20026;-73
2022/07/26 02:31:39;;;;;;;12.75;9.35;;;;;;;22.88;86.55;97290.78;5010181;28;20119;-75
2022/07/26 02:34:04;;;;;;;14.48;9.13;;;;;;;22.87;86.20;97297.56;5010319;28;20363;-74
2022/07/26 02:36:30;;;;;;;12.10;8.77;;;;;;;22.84;86.15;97289.97;5010263;28;20048;-75
2022/07/26 02:38:55;;;;;;;12.75;9.07;;;;;;;22.90;85.41;97286.41;4992543;28;20390;-74
2022/07/26 02:41:21;;;;;;;14.52;9.98;;;;;;;22.87;85.79;97284.41;5010236;28;20483;-73
2022/07/26 02:43:46;;;;;;;11.00;9.27;;;;;;;22.87;86.34;97290.00;5010222;28;20123;-74
2022/07/26 02:46:11;;;;;;;15.25;9.98;;;;;;;22.80;86.98;97289.97;5010318;28;20033;-74
2022/07/26 02:48:37;;;;;;;16.23;10.57;;;;;;;22.80;86.85;97286.38;4994118;28;20026;-73
2022/07/26 02:51:03;;;;;;;16.55;10.50;;;;;;;22.59;88.22;97273.09;4996136;28;20523;-74
2022/07/26 02:53:28;;;;;;;11.05;9.75;;;;;;;22.56;89.22;97279.44;5013945;28;20026;-74
2022/07/26 02:55:54;;;;;;;12.95;10.00;;;;;;;22.48;89.72;97277.03;5013674;28;20072;-74
2022/07/26 02:58:20;;;;;;;13.63;9.80;;;;;;;22.24;91.97;97273.69;4996126;28;20017;-74
2022/07/26 03:00:46;;;;;;;11.43;9.93;;;;;;;22.19;91.78;97276.03;5013671;28;20393;-73
2022/07/26 03:03:12;;;;;;;11.80;9.50;;;;;;;22.24;90.91;97284.84;5013513;28;20116;-75
2022/07/26 03:05:38;;;;;;;12.38;10.00;;;;;;;22.17;91.65;97279.22;5013723;28;20450;-73
2022/07/26 03:08:04;;;;;;;13.13;10.27;;;;;;;22.25;91.58;97286.44;5013489;28;20037;-74
2022/07/26 03:10:29;;;;;;;12.50;9.52;;;;;;;22.21;91.57;97279.25;5013232;28;20446;-74
2022/07/26 03:12:55;;;;;;;13.05;9.95;;;;;;;22.14;91.75;97285.59;5013383;28;20032;-74
2022/07/26 03:15:20;;;;;;;12.73;10.88;;;;;;;22.07;92.94;97276.34;5013241;28;20097;-75
2022/07/26 03:17:45;;;;;;;12.95;9.77;;;;;;;22.09;92.48;97282.34;5013473;28;20116;-74
2022/07/26 03:20:11;;;;;;;14.50;9.77;;;;;;;22.05;92.80;97278.75;5013321;28;20064;-73
2022/07/26 03:22:37;;;;;;;15.25;10.27;;;;;;;22.04;92.65;97294.66;5013128;28;20030;-75
2022/07/26 03:25:02;;;;;;;14.95;9.57;;;;;;;22.09;92.82;97305.44;5013236;28;20037;-73
2022/07/26 03:27:29;;;;;;;10.75;9.32;;;;;;;22.31;91.47;97312.75;5013309;28;20492;-75
2022/07/26 03:29:54;;;;;;;13.57;9.95;;;;;;;22.33;91.17;97320.75;5013137;28;20112;-74
2022/07/26 03:32:20;;;;;;;12.88;10.02;;;;;;;22.26;91.85;97317.91;5012969;28;20128;-75
2022/07/26 03:34:45;;;;;;;14.80;10.15;;;;;;;22.35;91.55;97335.09;5013223;28;20521;-74
2022/07/26 03:37:11;;;;;;;15.05;9.75;;;;;;;22.35;91.66;97335.88;5012861;28;20502;-75
2022/07/26 03:39:37;;;;;;;15.35;10.95;;;;;;;22.43;91.23;97337.53;5012962;28;20033;-74
2022/07/26 03:42:03;;;;;;;13.38;10.02;;;;;;;22.41;92.19;97331.53;5012953;28;20471;-75
2022/07/26 03:44:28;;;;;;;11.07;9.40;;;;;;;22.39;91.57;97325.56;5012753;28;20479;-74
2022/07/26 03:46:53;;;;;;;13.52;9.65;;;;;;;22.40;92.01;97321.56;5012817;28;20034;-74
2022/07/26 03:49:19;;;;;;;12.32;9.98;;;;;;;22.31;92.88;97328.66;5012690;28;20033;-73
2022/07/26 03:51:44;;;;;;;14.20;10.05;;;;;;;22.36;92.48;97315.19;5012641;28;20482;-73
2022/07/26 03:54:10;;;;;;;14.75;10.60;;;;;;;22.59;90.97;97322.47;5012740;28;20022;-74
2022/07/26 03:56:35;;;;;;;12.55;9.90;;;;;;;22.67;90.34;97319.41;5012588;28;20413;-73
2022/07/26 03:59:03;;;;;;;16.83;11.68;;;;;;;22.18;94.70;97314.25;4994383;28;20033;-74
2022/07/26 04:01:29;;;;;;;13.30;10.73;;;;;;;22.22;94.95;97315.09;5012284;28;20065;-75
2022/07/26 04:03:54;;;;;;;14.60;10.70;;;;;;;22.37;93.88;97311.19;5012516;28;20107;-74
2022/07/26 04:06:20;;;;;;;14.30;11.07;;;;;;;22.26;94.23;97304.78;5012578;28;20033;-74
2022/07/26 04:08:46;;;;;;;13.40;11.07;;;;;;;22.35;94.27;97327.53;5012171;28;20032;-75
2022/07/26 04:11:11;;;;;;;13.02;10.40;;;;;;;22.45;93.67;97327.97;5012448;28;20026;-75
2022/07/26 04:13:37;;;;;;;13.13;10.57;;;;;;;22.52;93.07;97328.03;5012126;28;20038;-73
2022/07/26 04:16:03;;;;;;;17.55;10.70;;;;;;;22.68;90.89;97323.00;5012269;28;20036;-73
2022/07/26 04:18:28;;;;;;;16.33;10.07;;;;;;;22.65;90.75;97332.06;5012137;28;20068;-73
2022/07/26 04:20:53;;;;;;;13.55;9.40;;;;;;;22.65;90.15;97332.91;5011962;28;20037;-74
2022/07/26 04:23:19;;;;;;;14.10;10.00;;;;;;;22.57;90.00;97331.25;5012436;28;20026;-75
2022/07/26 04:25:44;;;;;;;12.32;10.20;;;;;;;22.71;88.71;97336.16;5011660;28;20021;-75
2022/07/26 04:28:10;;;;;;;13.43;10.30;;;;;;;22.74;88.29;97335.38;5013593;28;20042;-74
2022/07/26 04:30:36;;;;;;;14.43;9.98;;;;;;;22.87;87.55;97333.81;5013933;28;20045;-73
2022/07/26 04:33:01;;;;;;;11.75;10.25;;;;;;;22.93;86.50;97333.06;5011809;28;20028;-73
2022/07/26 04:35:27;;;;;;;14.15;10.57;;;;;;;23.07;85.15;97343.50;5011670;28;20045;-77
2022/07/26 04:37:52;;;;;;;13.90;10.63;;;;;;;23.08;84.57;97331.16;5011737;28;20058;-73
2022/07/26 04:40:20;;;;;;;12.57;9.63;;;;;;;23.12;84.80;97340.31;5011658;28;20489;-76
2022/07/26 04:42:45;;;;;;;14.95;10.70;;;;;;;23.00;85.24;97337.88;5011709;28;20395;-75
2022/07/26 04:45:12;;;;;;;12.70;9.85;;;;;;;23.05;84.65;97331.13;5011902;28;20090;-74
2022/07/26 04:47:48;;;;;;;12.52;10.15;;;;;;;23.17;83.25;97334.38;5011708;28;20033;-76
2022/07/26 04:50:13;;;;;;;11.20;9.52;;;;;;;23.14;82.81;97348.31;5011324;28;20117;-74
2022/07/26 04:52:39;;;;;;;12.80;9.00;;;;;;;23.12;82.98;97345.91;5011332;28;20113;-74
2022/07/26 04:55:07;;;;;;;12.63;9.07;;;;;;;23.11;82.21;97349.91;4993745;28;20112;-75
2022/07/26 04:57:33;;;;;;;13.52;9.80;;;;;;;23.48;80.93;97360.03;4993947;28;20037;-73
2022/07/26 04:59:58;;;;;;;18.17;9.75;;;;;;;23.33;80.56;97361.94;5011143;28;20026;-73
2022/07/26 05:02:23;;;;;;;10.10;8.85;;;;;;;23.59;79.92;97355.28;5011588;28;20045;-73
2022/07/26 05:04:49;;;;;;;15.10;9.57;;;;;;;23.79;78.17;97357.31;5011140;28;20053;-73
2022/07/26 05:07:14;;;;;;;10.02;8.30;;;;;;;23.93;77.24;97356.53;4993510;28;20030;-75
2022/07/26 05:09:39;;;;;;;8.98;7.25;;;;;;;24.02;74.46;97354.16;5011227;28;20049;-73
2022/07/26 05:12:05;;;;;;;11.95;7.57;;;;;;;24.33;72.42;97358.97;5010492;28;20030;-74
2022/07/26 05:14:30;;;;;;;8.75;6.68;;;;;;;24.39;72.35;97362.16;5010482;28;20485;-73
2022/07/26 05:16:56;;;;;;;11.48;7.53;;;;;;;24.56;71.41;97360.56;5011199;28;20018;-74
2022/07/26 05:19:21;;;;;;;15.68;6.88;;;;;;;24.76;68.62;97365.31;5011064;28;20390;-73
2022/07/26 05:21:46;;;;;;;12.55;7.75;;;;;;;24.82;69.81;97374.09;5011081;28;20030;-75
2022/07/26 05:24:12;;;;;;;13.35;8.45;;;;;;;24.75;72.63;97365.69;5010771;28;20045;-73
2022/07/26 05:26:37;;;;;;;11.27;8.88;;;;;;;24.44;74.21;97370.13;5011013;28;20057;-74
2022/07/26 05:29:02;;;;;;;13.82;9.35;;;;;;;24.12;75.89;97363.78;5010873;28;20113;-73
2022/07/26 05:31:28;;;;;;;11.68;8.93;;;;;;;24.15;76.35;97374.91;5010863;28;20536;-74
2022/07/26 05:33:54;;;;;;;12.60;8.48;;;;;;;24.10;75.99;97372.50;5010873;28;20049;-73
2022/07/26 05:36:20;;;;;;;11.18;8.38;;;;;;;24.07;77.00;97375.28;5010673;28;20046;-74
2022/07/26 05:38:46;;;;;;;9.30;7.97;;;;;;;23.86;77.95;97367.69;5010969;28;20081;-74
2022/07/26 05:41:11;;;;;;;13.23;9.40;;;;;;;24.12;77.13;97381.31;5010801;28;20026;-75
2022/07/26 05:43:36;;;;;;;13.80;9.75;;;;;;;24.16;76.74;97393.31;5010846;28;20506;-74
2022/07/26 05:46:02;;;;;;;10.75;8.23;;;;;;;24.45;74.47;97383.72;5010879;28;20018;-73
2022/07/26 05:48:27;;;;;;;12.38;9.07;;;;;;;24.63;73.33;97396.88;5010924;28;20053;-75
2022/07/26 05:50:53;;;;;;;14.02;10.30;;;;;;;24.75;73.33;97385.28;4993000;28;20471;-74
2022/07/26 05:53:18;;;;;;;18.30;10.27;;;;;;;24.37;74.92;97384.91;5010587;28;21044;-75
2022/07/26 05:55:44;;;;;;;12.88;10.13;;;;;;;24.56;74.87;97388.53;5010697;28;20467;-73
2022/07/26 05:58:09;;;;;;;12.63;9.30;;;;;;;24.61;73.48;97377.72;5010669;28;20467;-73
2022/07/26 06:00:34;;;;;;;10.73;9.00;;;;;;;24.90;72.10;97378.50;5010656;28;20077;-74
2022/07/26 06:03:20;;;;;;;10.57;8.43;;;;;;;25.12;70.77;97377.25;5010468;28;20026;-75
2022/07/26 06:05:46;;;;;;;11.80;8.10;;;;;;;25.26;70.65;97388.38;5010406;28;20037;-75
2022/07/26 06:08:11;;;;;;;11.10;9.27;;;;;;;25.36;69.74;97392.34;5010273;28;20025;-75
2022/07/26 06:10:36;;;;;;;14.40;8.25;;;;;;;25.45;68.78;97385.09;5010516;28;20061;-73
2022/07/26 06:13:02;;;;;;;9.50;7.40;;;;;;;25.48;69.04;97375.09;5010663;28;20081;-74
2022/07/26 06:15:27;;;;;;;14.55;8.98;;;;;;;25.20;68.85;97373.19;5010427;28;20053;-74
2022/07/26 06:17:52;;;;;;;14.43;9.35;;;;;;;25.42;67.68;97374.72;5010326;28;20045;-74
2022/07/26 06:20:18;;;;;;;14.90;9.13;;;;;;;24.87;70.67;97376.50;5010311;28;20022;-73
2022/07/26 06:22:43;;;;;;;12.73;9.65;;;;;;;25.04;69.98;97381.25;5012618;28;20026;-75
2022/07/26 06:25:08;;;;;;;13.68;9.55;;;;;;;25.53;67.77;97381.09;5014363;28;20490;-74
2022/07/26 06:27:34;;;;;;;14.93;9.10;;;;;;;25.27;69.26;97395.59;5014135;28;20612;-76
2022/07/26 06:29:59;;;;;;;11.05;8.68;;;;;;;25.62;67.87;97394.66;5014161;28;20022;-75
2022/07/26 06:32:24;;;;;;;11.57;9.27;;;;;;;25.87;66.88;97402.94;5013872;28;20030;-75
2022/07/26 06:34:50;;;;;;;16.67;9.75;;;;;;;25.29;67.91;97409.97;5014203;28;20065;-74
2022/07/26 06:37:15;;;;;;;13.13;8.45;;;;;;;25.48;67.83;97406.69;5014076;28;20077;-74
2022/07/26 06:39:40;;;;;;;13.98;9.40;;;;;;;25.90;66.33;97410.53;5014148;28;20137;-74
2022/07/26 06:42:06;;;;;;;12.85;8.75;;;;;;;25.90;66.08;97419.75;5014388;28;20018;-74
2022/07/26 06:44:31;;;;;;;9.82;8.20;;;;;;;25.68;66.23;97420.25;5015629;28;20036;-74
2022/07/26 06:46:56;;;;;;;12.07;8.07;;;;;;;25.09;69.08;97411.66;5015627;28;20069;-74
2022/07/26 06:49:21;;;;;;;20.30;9.50;;;;;;;24.89;70.52;97408.50;5014199;28;20087;-74
2022/07/26 06:51:47;;;;;;;24.70;9.70;;;;;;;24.62;72.46;97409.28;5013955;28;20084;-75
2022/07/26 06:54:12;;;;;;;21.10;8.63;;;;;;;24.46;73.91;97413.28;5013889;28;20472;-74
2022/07/26 06:56:37;;;;;;;16.52;9.73;;;;;;;24.54;73.56;97419.69;5013913;28;20030;-75
2022/07/26 06:59:03;;;;;;;12.23;9.40;;;;;;;24.28;74.52;97426.47;5013975;28;20068;-74
2022/07/26 07:01:28;;;;;;;16.73;9.13;;;;;;;24.23;74.73;97434.44;5013894;28;20033;-74
2022/07/26 07:03:53;;;;;;;14.77;9.57;;;;;;;23.68;77.31;97425.53;5014826;28;20034;-75
2022/07/26 07:06:19;;;;;;;12.70;9.55;;;;;;;23.67;77.09;97421.13;4997787;28;20034;-75
2022/07/26 07:08:47;;;;;;;11.80;10.32;;;;;;;23.66;77.52;97422.31;5013863;28;20120;-75
2022/07/26 07:11:13;;;;;;;11.85;9.07;;;;;;;23.52;78.38;97422.28;5013665;28;20465;-75
2022/07/26 07:13:38;;;;;;;12.60;8.95;;;;;;;23.52;77.73;97430.66;5013476;28;20114;-75
2022/07/26 07:16:04;;;;;;;14.10;9.30;;;;;;;23.46;77.00;97425.44;5013242;28;20033;-74
2022/07/26 07:18:29;;;;;;;13.73;9.10;;;;;;;23.56;75.91;97437.84;5013226;28;20104;-75
2022/07/26 07:20:54;;;;;;;12.40;9.30;;;;;;;23.59;75.50;97430.69;4995566;28;20057;-74
2022/07/26 07:23:22;;;;;;;15.10;9.13;;;;;;;23.66;74.74;97437.06;5013005;28;20066;-75
2022/07/26 07:25:48;;;;;;;10.10;8.68;;;;;;;23.61;74.18;97428.28;5013308;28;20021;-75
2022/07/26 07:28:13;;;;;;;13.82;9.02;;;;;;;23.66;73.42;97436.28;5013266;28;20021;-74
2022/07/26 07:30:39;;;;;;;8.32;7.30;;;;;;;23.64;72.77;97439.47;5012974;28;20030;-74
2022/07/26 07:33:04;;;;;;;11.90;8.68;;;;;;;23.48;74.86;97455.75;5013006;28;20121;-75
2022/07/26 07:35:29;;;;;;;11.20;9.32;;;;;;;23.27;76.54;97448.06;5012609;28;20556;-74
2022/07/26 07:37:55;;;;;;;13.15;8.95;;;;;;;23.19;78.60;97479.91;5013271;28;20474;-75
2022/07/26 07:40:21;;;;;;;17.73;9.90;;;;;;;23.11;79.67;97483.03;5012957;28;20033;-76
2022/07/26 07:42:46;;;;;;;11.57;8.52;;;;;;;23.11;77.17;97478.28;5013096;28;20034;-75
2022/07/26 07:45:12;;;;;;;8.93;7.72;;;;;;;23.13;76.91;97467.50;5012892;28;20113;-75
2022/07/26 07:47:37;;;;;;;9.85;7.93;;;;;;;23.21;77.25;97487.91;5013017;28;20510;-75
2022/07/26 07:50:03;;;;;;;7.63;6.78;;;;;;;23.24;77.01;97489.91;5012894;28;20140;-73
2022/07/26 07:52:28;;;;;;;13.40;9.07;;;;;;;23.17;79.58;97504.63;5012792;28;20026;-75
2022/07/26 07:54:53;;;;;;;12.32;8.63;;;;;;;23.02;84.06;97519.69;5012788;28;20109;-74
2022/07/26 07:57:19;;;;;;;11.70;8.68;;;;;;;22.86;88.27;97544.25;5012714;28;20075;-74
2022/07/26 07:59:44;;;;;;;11.23;8.07;;;;;;;22.83;94.10;97557.00;5012565;28;20069;-75
2022/07/26 08:02:11;;;;;;;10.43;8.73;;;;;;;22.68;94.70;97566.38;5012556;28;20099;-75
2022/07/26 08:04:37;;;;;;;12.30;9.30;;;;;;;22.52;100.00;97563.03;4998120;28;20018;-75
2022/07/26 08:07:02;;;;;;;13.07;9.77;;;;;;;22.58;100.00;97561.50;5014059;28;20052;-74
2022/07/26 08:09:27;;;;;;;14.20;10.32;;;;;;;22.38;100.00;97543.38;5012477;28;20041;-75
2022/07/26 08:11:53;;;;;;;19.95;10.15;;;;;;;22.17;100.00;97535.59;5012639;28;20432;-74
2022/07/26 08:14:18;;;;;;;14.00;10.05;;;;;;;22.19;100.00;97533.22;5012337;28;20053;-74
2022/07/26 08:16:44;;;;;;;14.07;10.00;;;;;;;22.18;100.00;97519.66;4994861;28;20033;-75
2022/07/26 08:19:10;;;;;;;15.27;10.80;;;;;;;22.11;100.00;97531.53;5012205;28;20554;-75
2022/07/26 08:21:35;;;;;;;14.40;10.60;;;;;;;22.25;100.00;97556.78;5012415;28;20383;-74
2022/07/26 08:24:00;;;;;;;14.88;11.43;;;;;;;22.23;100.00;97566.69;5012189;28;20083;-73
2022/07/26 08:26:26;;;;;;;16.42;11.50;;;;;;;22.11;100.00;97564.97;5011957;28;20068;-74
2022/07/26 08:28:51;;;;;;;18.30;11.25;;;;;;;22.08;100.00;97567.72;5012047;28;20498;-75
2022/07/26 08:31:19;;;;;;;13.73;10.98;;;;;;;22.14;100.00;97566.19;5011755;28;20073;-74
2022/07/26 08:33:45;;;;;;;15.65;12.40;;;;;;;22.15;100.00;97574.16;4994154;28;20112;-74
2022/07/26 08:36:11;;;;;;;16.77;11.90;;;;;;;22.09;100.00;97595.19;5001436;28;20058;-74
2022/07/26 08:38:36;;;;;;;13.93;10.77;;;;;;;21.99;100.00;97601.44;5002288;28;20413;-74
2022/07/26 08:41:01;;;;;;;21.05;11.57;;;;;;;21.94;100.00;97593.41;5011867;28;20524;-74
2022/07/26 08:43:28;;;;;;;15.73;11.35;;;;;;;21.93;100.00;97594.59;5011861;28;20882;-74
2022/07/26 08:45:59;;;;;;;14.27;11.65;;;;;;;21.97;100.00;97598.22;5011608;28;20033;-74
2022/07/26 08:48:25;;;;;;;16.33;12.10;;;;;;;21.94;100.00;97609.31;5011842;28;20070;-74
2022/07/26 08:50:53;;;;;;;17.27;11.90;;;;;;;21.96;100.00;97618.91;5011729;28;20111;-74
2022/07/26 08:53:19;;;;;;;15.85;11.32;;;;;;;21.93;100.00;97627.22;5011737;28;20033;-74
2022/07/26 08:55:44;;;;;;;17.83;11.95;;;;;;;21.82;100.00;97615.91;5011690;28;20044;-75
2022/07/26 08:58:10;;;;;;;14.90;11.75;;;;;;;21.84;100.00;97616.31;5011435;28;20108;-74
2022/07/26 09:00:36;;;;;;;19.75;12.40;;;;;;;21.78;100.00;97617.84;5011543;28;20054;-74
2022/07/26 09:03:02;;;;;;;19.17;12.25;;;;;;;21.76;100.00;97637.72;5011574;28;20060;-73
2022/07/26 09:05:31;;;;;;;15.77;11.35;;;;;;;21.82;100.00;97649.31;5011507;28;20034;-74
2022/07/26 09:07:58;;;;;;;17.48;12.43;;;;;;;21.88;100.00;97678.47;5011463;28;20025;-74
2022/07/26 09:10:24;;;;;;;18.65;12.27;;;;;;;21.95;100.00;97678.59;5011442;28;20489;-74
2022/07/26 09:12:56;;;;;;;18.45;13.43;;;;;;;21.99;100.00;97676.66;5011119;28;20116;-75
2022/07/26 09:15:24;;;;;;;21.02;12.10;;;;;;;22.09;100.00;97667.63;5011333;28;20034;-73
2022/07/26 09:17:52;;;;;;;20.38;11.55;;;;;;;22.05;100.00;97666.81;5011640;28;20021;-74
2022/07/26 09:20:19;;;;;;;13.77;10.45;;;;;;;21.94;100.00;97671.41;5012258;28;20026;-73
2022/07/26 09:23:06;;;;;;;13.48;9.10;;;;;;;21.83;100.00;97653.72;5013327;28;20456;-74
2022/07/26 09:25:33;;;;;;;26.63;8.50;;;;;;;21.62;100.00;97670.91;5011217;28;20076;-74
2022/07/26 09:27:59;;;;;;;15.32;8.45;;;;;;;21.66;100.00;97674.56;5011150;28;20022;-73
2022/07/26 09:30:27;;;;;;;10.30;8.23;;;;;;;21.71;100.00;97679.78;5010946;28;20041;-74
2022/07/26 09:33:03;;;;;;;10.95;7.90;;;;;;;21.69;100.00;97676.59;5010915;28;20066;-74
2022/07/26 09:35:30;;;;;;;12.63;7.75;;;;;;;21.47;100.00;97673.84;5010994;28;20026;-74
2022/07/26 09:37:56;;;;;;;13.30;8.05;;;;;;;21.47;100.00;97673.84;5010769;28;20056;-74
2022/07/26 09:40:22;;;;;;;14.30;8.43;;;;;;;21.40;100.00;97680.09;5010879;28;20154;-74
2022/07/26 09:42:58;;;;;;;9.65;7.90;;;;;;;21.35;100.00;97674.84;5011050;28;20042;-74
2022/07/26 09:45:25;;;;;;;10.15;7.18;;;;;;;21.33;100.00;97683.56;5011122;28;20117;-75
2022/07/26 09:47:51;;;;;;;12.13;7.50;;;;;;;21.46;100.00;97683.38;5010828;28;20034;-74
2022/07/26 09:50:26;;;;;;;13.23;7.18;;;;;;;21.35;100.00;97674.84;5010888;28;20116;-75
2022/07/26 09:53:01;;;;;;;10.68;7.32;;;;;;;20.88;100.00;97661.28;5010996;28;20034;-74
2022/07/26 09:55:28;;;;;;;10.27;7.97;;;;;;;20.69;100.00;97659.34;5010816;28;20025;-74
2022/07/26 09:57:53;;;;;;;11.98;8.13;;;;;;;20.68;100.00;97654.97;5015412;28;20573;-74
2022/07/26 10:00:19;;;;;;;14.80;7.65;;;;;;;20.77;100.00;97657.50;5017291;28;20116;-75
2022/07/26 10:02:44;;;;;;;10.95;8.10;;;;;;;20.74;100.00;97663.78;5017180;28;20030;-73
2022/07/26 10:05:10;;;;;;;10.98;7.45;;;;;;;20.66;100.00;97659.28;5017261;28;20045;-75
2022/07/26 10:07:36;;;;;;;11.10;6.93;;;;;;;20.68;100.00;97646.63;5017275;28;20062;-74
2022/07/26 10:10:07;;;;;;;8.80;6.72;;;;;;;20.69;100.00;97639.09;5017350;28;20026;-74
2022/07/26 10:12:33;;;;;;;9.55;6.00;;;;;;;20.93;100.00;97627.59;5016920;28;20033;-75
2022/07/26 10:15:00;;;;;;;10.20;7.75;;;;;;;21.08;100.00;97648.13;5017269;28;20056;-74
2022/07/26 10:17:28;;;;;;;10.85;7.55;;;;;;;21.31;100.00;97671.19;5017131;28;20033;-75
2022/07/26 10:19:55;;;;;;;9.60;7.45;;;;;;;21.33;100.00;97685.56;5016969;28;20026;-75
2022/07/26 10:22:31;;;;;;;9.93;6.65;;;;;;;21.56;100.00;97694.69;5017133;28;20064;-73
2022/07/26 10:25:16;;;;;;;11.05;7.32;;;;;;;21.85;100.00;97693.94;5016984;28;20386;-74
2022/07/26 10:27:44;;;;;;;11.68;7.97;;;;;;;22.07;100.00;97691.50;4976722;28;20041;-75
2022/07/26 10:30:18;;;;;;;9.68;6.60;;;;;;;22.25;100.00;97692.53;5016955;28;20080;-73
2022/07/26 10:33:00;;;;;;;8.80;6.43;;;;;;;22.58;100.00;97692.56;5017081;28;20550;-74
2022/07/26 10:35:42;;;;;;;9.32;6.53;;;;;;;22.96;100.00;97699.00;5017022;28;20033;-75
2022/07/26 10:38:24;;;;;;;9.63;6.35;;;;;;;23.08;100.00;97699.53;5016685;28;20056;-75
2022/07/26 10:40:57;;;;;;;8.43;6.15;;;;;;;23.01;100.00;97709.78;5016862;28;20084;-75
2022/07/26 10:43:23;;;;;;;8.45;5.95;;;;;;;23.07;100.00;97709.06;5016821;28;20095;-74
2022/07/26 10:46:12;;;;;;;12.35;6.38;;;;;;;22.93;100.00;97711.69;5017084;28;20049;-75
2022/07/26 10:49:02;;;;;;;8.40;6.40;;;;;;;23.22;100.00;97705.22;5016371;28;20032;-74
2022/07/26 10:51:33;;;;;;;7.30;5.65;;;;;;;23.30;100.00;97684.59;5016538;28;20422;-73
2022/07/26 10:54:06;;;;;;;10.45;5.90;;;;;;;23.58;100.00;97684.03;5016714;28;20116;-75
2022/07/26 10:56:31;;;;;;;6.82;5.30;;;;;;;23.48;100.00;97692.31;5016655;28;20021;-74
2022/07/26 10:58:57;;;;;;;7.40;5.35;;;;;;;23.24;100.00;97694.47;5016519;28;20083;-73
2022/07/26 11:01:38;;;;;;;5.68;4.90;;;;;;;23.19;100.00;97692.03;5016908;28;20030;-73
2022/07/26 11:04:05;;;;;;;7.43;4.65;;;;;;;22.73;100.00;97683.22;5016574;28;20026;-74
2022/07/26 11:06:31;;;;;;;6.90;5.47;;;;;;;22.61;100.00;97680.66;4999158;28;20626;-74
2022/07/26 11:08:57;;;;;;;12.73;6.05;;;;;;;22.90;100.00;97670.59;5013671;28;20038;-75
2022/07/26 11:11:28;;;;;;;7.68;4.93;;;;;;;23.16;100.00;97670.47;5013546;28;20033;-76
2022/07/26 11:14:13;;;;;;;5.85;4.65;;;;;;;23.21;100.00;97686.88;5013800;28;20021;-74
2022/07/26 11:16:44;;;;;;;7.60;5.20;;;;;;;22.97;100.00;97693.00;5013505;28;20053;-74
2022/07/26 11:19:18;;;;;;;7.05;4.70;;;;;;;23.27;100.00;97696.53;5013323;28;20112;-74